createdAt,value
2023-02-19T00:08:05.878Z,23.79
2023-02-19T00:18:13.655Z,18.05
2023-02-19T00:28:21.517Z,18.95
2023-02-19T00:38:29.399Z,20.11
2023-02-19T00:48:37.310Z,18.78
2023-02-19T00:58:45.174Z,19.39
2023-02-19T01:08:53.890Z,22.94
2023-02-19T01:19:01.690Z,20.09
2023-02-19T01:29:09.582Z,21.04
2023-02-19T01:39:17.611Z,22.84
2023-02-19T01:49:25.535Z,25
2023-02-19T01:59:34.417Z,23.62
2023-02-19T02:09:42.164Z,23.61
2023-02-19T02:19:49.971Z,21.53
2023-02-19T02:30:00.057Z,22.63
2023-02-19T02:39:58.887Z,25.48
2023-02-19T02:50:06.716Z,22.19
2023-02-19T03:00:14.572Z,24.5
2023-02-19T03:10:22.421Z,22.52
2023-02-19T03:20:30.226Z,22.66
2023-02-19T03:30:39.032Z,22.14
2023-02-19T03:40:46.944Z,22.09
2023-02-19T03:50:54.769Z,20.15
2023-02-19T04:01:02.610Z,20.37
2023-02-19T04:11:10.737Z,21.41
2023-02-19T04:21:17.950Z,20.78
2023-02-19T04:31:26.229Z,21.45
2023-02-19T04:41:33.965Z,21.92
2023-02-19T04:51:41.748Z,19.84
2023-02-19T05:01:49.612Z,19.36
2023-02-19T05:11:57.499Z,21.34
2023-02-19T05:22:05.464Z,20.12
2023-02-19T05:32:13.416Z,19.03
2023-02-19T05:42:21.187Z,21.3
2023-02-19T05:52:29.002Z,20.92
2023-02-19T06:02:36.829Z,18.75
2023-02-19T06:12:44.719Z,19.93
2023-02-19T06:22:52.627Z,19.72
2023-02-19T06:33:00.502Z,18.72
2023-02-19T06:43:08.525Z,23.55
2023-02-19T06:53:16.326Z,20.21
2023-02-19T07:03:24.202Z,20.41
2023-02-19T07:13:31.980Z,21.41
2023-02-19T07:23:40.313Z,17.75
2023-02-19T07:33:50.593Z,23.2
2023-02-19T07:43:58.489Z,20.74
2023-02-19T07:54:07.375Z,22.91
2023-02-19T08:04:15.281Z,18.85
2023-02-19T08:14:23.157Z,22.04
2023-02-19T08:24:31.052Z,18.43
2023-02-19T08:34:39.126Z,20.64
2023-02-19T08:44:47.257Z,20.43
2023-02-19T08:54:55.237Z,18.64
2023-02-19T09:05:03.115Z,19.21
2023-02-19T09:15:11.306Z,18.49
2023-02-19T09:25:19.163Z,20.47
2023-02-19T09:35:26.935Z,20.29
2023-02-19T09:45:34.763Z,19.77
2023-02-19T09:55:42.714Z,22.54
2023-02-19T10:05:52.405Z,19.42
2023-02-19T10:16:00.251Z,17.19
2023-02-19T10:26:08.102Z,16.98
2023-02-19T10:36:15.937Z,17.62
2023-02-19T10:46:23.794Z,16.3
2023-02-19T10:56:31.627Z,20.67
2023-02-19T11:06:39.159Z,20.05
2023-02-19T11:16:47.044Z,19.13
2023-02-19T11:26:55.996Z,16.69
2023-02-19T11:37:06.388Z,26.44
2023-02-19T11:47:04.601Z,22.05
2023-02-19T11:57:12.377Z,24.56
2023-02-19T12:07:22.743Z,23.48
2023-02-19T12:17:28.330Z,18.5
2023-02-19T12:27:37.378Z,20.53
2023-02-19T12:37:45.373Z,20.66
2023-02-19T12:47:53.243Z,20.22
2023-02-19T12:58:01.747Z,23.8
2023-02-19T13:08:12.527Z,24.98
2023-02-19T13:18:12.602Z,23.22
2023-02-19T13:28:10.532Z,22.45
2023-02-19T13:38:18.312Z,20.6
2023-02-19T13:48:26.085Z,22.67
2023-02-19T13:58:33.998Z,27.26
2023-02-19T14:08:41.800Z,32.42
2023-02-19T14:18:49.686Z,23.82
2023-02-19T14:28:57.650Z,22.72
2023-02-19T14:39:05.462Z,20.5
2023-02-19T14:49:13.360Z,18.79
2023-02-19T14:59:21.165Z,19.18
2023-02-19T15:09:28.943Z,21.24
2023-02-19T15:19:38.135Z,21.59
2023-02-19T15:29:46.059Z,20.46
2023-02-19T15:39:53.485Z,19.71
2023-02-19T15:50:01.414Z,19.39
2023-02-19T16:00:09.587Z,17.58
2023-02-19T16:10:17.482Z,15.46
2023-02-19T16:20:25.215Z,20.54
2023-02-19T16:30:33.305Z,21.27
2023-02-19T16:40:42.266Z,19.37
2023-02-19T16:50:50.114Z,17.76
2023-02-19T17:00:57.939Z,22.09
2023-02-19T17:11:05.768Z,20.12
2023-02-19T17:21:14.646Z,17.86
2023-02-19T17:31:22.652Z,17.59
2023-02-19T17:41:30.403Z,21.61
2023-02-19T17:51:38.298Z,16
2023-02-19T18:01:46.191Z,17.12
2023-02-19T18:11:54.116Z,21.4
2023-02-19T18:22:02.137Z,16.79
2023-02-19T18:32:09.672Z,21.73
2023-02-19T18:42:18.189Z,15.24
2023-02-19T18:52:27.779Z,20.07
2023-02-19T19:02:47.332Z,19.79
2023-02-19T19:12:50.117Z,21.46
2023-02-19T19:32:48.935Z,17.46
2023-02-19T19:42:56.507Z,15.57
2023-02-19T20:03:01.293Z,23.39
2023-02-19T20:13:10.619Z,28.3
2023-02-19T20:23:27.350Z,22.36
2023-02-19T20:43:30.212Z,22.32
2023-02-19T20:53:39.086Z,30.17
2023-02-19T21:03:37.608Z,22.81
2023-02-19T21:13:54.351Z,23.29
2023-02-19T21:24:00.313Z,23.26
2023-02-19T21:34:06.677Z,26.05
2023-02-19T21:44:06.500Z,25.1
2023-02-19T21:54:15.622Z,27.88
2023-02-19T22:04:24.631Z,31.29
2023-02-19T22:14:32.398Z,32.17
2023-02-19T22:24:42.416Z,29.31
2023-02-19T22:34:50.528Z,30.04
2023-02-19T22:44:58.648Z,23.71
2023-02-19T22:55:06.611Z,26.04
2023-02-19T23:05:14.846Z,28.79
2023-02-19T23:15:22.732Z,28.85
2023-02-19T23:25:30.565Z,26.77
2023-02-19T23:35:38.495Z,29.23
2023-02-19T23:45:46.369Z,26.76
2023-02-19T23:55:54.156Z,27.22
